Time;durP1;ratioP1;P1;durP2;ratioP2;P2;SDS_P1;SDS_P2;PMS_P1;PMS_P2;Temp;Humidity;BMP_temperature;BMP_pressure;BME280_temperature;BME280_humidity;BME280_pressure;Samples;Min_cycle;Max_cycle;Signal;HPM_P1;HPM_P2
2023/07/15 00:01:21;;;;;;;;;;;23.40;42.10;;;;;;6275659;22;19918;-78
2023/07/15 00:03:47;;;;;;;;;;;23.40;42.30;;;;;;6275967;22;19911;-77
2023/07/15 00:06:13;;;;;;;;;;;23.30;42.80;;;;;;6275573;22;20237;-78
2023/07/15 00:08:38;;;;;;;;;;;23.30;42.70;;;;;;6275611;22;19942;-78
2023/07/15 00:11:04;;;;;;;;;;;23.30;43.00;;;;;;6275519;22;19908;-78
2023/07/15 00:13:29;;;;;;;;;;;23.30;43.20;;;;;;6275639;22;19907;-74
2023/07/15 00:15:57;;;;;;;;;;;23.30;43.50;;;;;;6276040;22;20321;-78
2023/07/15 00:18:23;;;;;;;;;;;23.30;43.60;;;;;;6275407;22;19957;-79
2023/07/15 00:20:49;;;;;;;;;;;23.30;43.60;;;;;;6275445;22;19985;-78
2023/07/15 00:23:25;;;;;;;;;;;23.30;43.70;;;;;;6248387;22;19939;-78
2023/07/15 00:25:51;;;;;;;;;;;23.30;43.70;;;;;;6275483;22;19918;-79
2023/07/15 00:28:17;;;;;;;;;;;23.30;44.00;;;;;;6275567;22;19986;-77
2023/07/15 00:30:44;;;;;;;;;;;23.30;44.10;;;;;;6275469;22;19912;-78
2023/07/15 00:33:14;;;;;;;;;;;23.30;43.90;;;;;;6275461;22;19907;-78
2023/07/15 00:35:40;;;;;;;;;;;23.30;44.00;;;;;;6275180;22;19911;-78
2023/07/15 00:38:06;;;;;;;;;;;23.40;44.00;;;;;;6275203;22;19907;-78
2023/07/15 00:40:34;;;;;;;;;;;23.40;43.90;;;;;;6275314;22;20287;-78
2023/07/15 00:43:18;;;;;;;;;;;23.40;43.90;;;;;;6275230;22;19911;-78
2023/07/15 00:46:04;;;;;;;;;;;23.40;43.90;;;;;;6275157;22;19907;-77
2023/07/15 00:48:30;;;;;;;;;;;23.30;44.00;;;;;;6275159;22;20340;-78
2023/07/15 00:50:55;;;;;;;;;;;23.40;43.90;;;;;;6275353;22;19912;-77
2023/07/15 00:53:21;;;;;;;;;;;23.40;43.80;;;;;;6248290;22;19907;-78
2023/07/15 00:55:46;;;;;;;;;;;23.40;43.80;;;;;;6248366;22;19961;-77
2023/07/15 00:58:12;;;;;;;;;;;23.30;43.80;;;;;;6275310;22;20001;-77
2023/07/15 01:00:37;;;;;;;;;;;23.30;43.70;;;;;;6275551;22;19910;-78
2023/07/15 01:03:03;;;;;;;;;;;23.30;43.80;;;;;;6275105;22;19957;-77
2023/07/15 01:05:29;;;;;;;;;;;23.30;43.80;;;;;;6275074;22;19903;-77
2023/07/15 01:07:54;;;;;;;;;;;23.30;43.70;;;;;;6275132;22;19934;-77
2023/07/15 01:10:20;;;;;;;;;;;23.30;43.60;;;;;;6274851;22;19903;-76
2023/07/15 01:12:45;;;;;;;;;;;23.30;43.60;;;;;;6274952;22;20383;-77
2023/07/15 01:15:11;;;;;;;;;;;23.30;43.60;;;;;;6274917;22;20313;-77
2023/07/15 01:17:36;;;;;;;;;;;23.20;43.60;;;;;;6274783;22;20321;-77
2023/07/15 01:20:05;;;;;;;;;;;23.20;43.80;;;;;;6247625;22;20373;-77
2023/07/15 01:22:34;;;;;;;;;;;23.20;44.00;;;;;;6247353;22;20343;-77
2023/07/15 01:24:59;;;;;;;;;;;23.20;43.80;;;;;;6274788;22;19910;-77
2023/07/15 01:27:26;;;;;;;;;;;23.20;43.80;;;;;;6275412;22;20313;-77
2023/07/15 01:29:51;;;;;;;;;;;23.20;43.80;;;;;;6275850;22;19911;-78
2023/07/15 01:32:17;;;;;;;;;;;23.20;43.70;;;;;;6274786;22;19903;-79
2023/07/15 01:34:42;;;;;;;;;;;23.20;43.60;;;;;;6275259;22;19942;-77
2023/07/15 01:37:08;;;;;;;;;;;23.10;43.80;;;;;;6274775;22;19929;-77
2023/07/15 01:39:34;;;;;;;;;;;23.10;43.80;;;;;;6275347;22;19991;-77
2023/07/15 01:42:00;;;;;;;;;;;23.10;43.80;;;;;;6274436;22;19953;-78
2023/07/15 01:44:25;;;;;;;;;;;23.00;43.70;;;;;;6275533;22;20233;-77
2023/07/15 01:46:51;;;;;;;;;;;23.00;43.60;;;;;;6274678;22;20245;-77
2023/07/15 01:49:16;;;;;;;;;;;22.90;43.80;;;;;;6275315;22;19918;-78
2023/07/15 01:51:42;;;;;;;;;;;22.90;43.60;;;;;;6274665;22;19991;-77
2023/07/15 01:54:07;;;;;;;;;;;22.80;43.60;;;;;;6275088;22;20219;-77
2023/07/15 01:56:33;;;;;;;;;;;22.80;43.60;;;;;;6274448;22;19943;-78
2023/07/15 01:58:58;;;;;;;;;;;22.70;43.60;;;;;;6275234;22;19916;-78
2023/07/15 02:01:24;;;;;;;;;;;22.70;43.60;;;;;;6274523;22;19935;-77
2023/07/15 02:03:50;;;;;;;;;;;22.70;43.70;;;;;;6274780;22;20245;-78
2023/07/15 02:06:15;;;;;;;;;;;22.60;44.00;;;;;;6274435;22;19907;-77
2023/07/15 02:08:41;;;;;;;;;;;22.50;44.00;;;;;;6274763;22;19934;-77
2023/07/15 02:11:07;;;;;;;;;;;22.50;44.20;;;;;;6274546;22;20017;-78
2023/07/15 02:13:32;;;;;;;;;;;22.50;44.10;;;;;;6274684;22;19950;-74
2023/07/15 02:15:57;;;;;;;;;;;22.40;44.10;;;;;;6274807;22;20241;-78
2023/07/15 02:18:25;;;;;;;;;;;22.30;44.00;;;;;;6274814;22;20376;-78
2023/07/15 02:20:51;;;;;;;;;;;22.30;44.00;;;;;;6274664;22;19912;-77
2023/07/15 02:23:16;;;;;;;;;;;22.30;44.10;;;;;;6276637;22;19919;-78
2023/07/15 02:25:42;;;;;;;;;;;22.20;44.20;;;;;;6276371;22;19981;-77
2023/07/15 02:28:07;;;;;;;;;;;22.20;44.60;;;;;;6276890;22;19961;-78
2023/07/15 02:30:33;;;;;;;;;;;22.20;44.80;;;;;;6276698;22;19941;-77
2023/07/15 02:32:58;;;;;;;;;;;22.10;44.70;;;;;;6276661;22;20309;-78
2023/07/15 02:35:24;;;;;;;;;;;22.10;44.70;;;;;;6276501;22;20009;-78
2023/07/15 02:37:49;;;;;;;;;;;22.10;44.90;;;;;;6276485;22;19919;-78
2023/07/15 02:40:15;;;;;;;;;;;22.00;44.90;;;;;;6276538;22;20394;-77
2023/07/15 02:42:40;;;;;;;;;;;22.00;44.90;;;;;;6276115;22;19907;-77
2023/07/15 02:45:11;;;;;;;;;;;22.00;44.80;;;;;;6276583;22;19986;-74
2023/07/15 02:47:39;;;;;;;;;;;22.10;44.90;;;;;;6276202;22;19907;-73
2023/07/15 02:50:08;;;;;;;;;;;22.10;45.00;;;;;;6276711;22;20392;-77
2023/07/15 02:52:34;;;;;;;;;;;22.20;44.90;;;;;;6276468;22;20349;-78
2023/07/15 02:55:00;;;;;;;;;;;22.30;44.80;;;;;;6276264;22;19978;-78
2023/07/15 02:57:26;;;;;;;;;;;22.30;44.70;;;;;;6276110;22;20312;-77
2023/07/15 02:59:52;;;;;;;;;;;22.30;44.60;;;;;;6276842;22;19915;-77
2023/07/15 03:02:17;;;;;;;;;;;22.40;44.40;;;;;;6276180;22;19969;-78
2023/07/15 03:04:43;;;;;;;;;;;22.60;44.30;;;;;;6249280;22;19941;-77
2023/07/15 03:07:09;;;;;;;;;;;22.70;44.10;;;;;;6276479;22;19935;-77
2023/07/15 03:09:35;;;;;;;;;;;22.80;44.00;;;;;;6276870;22;19919;-76
2023/07/15 03:12:00;;;;;;;;;;;22.80;43.70;;;;;;6276219;22;19907;-78
2023/07/15 03:14:26;;;;;;;;;;;22.90;43.50;;;;;;6249427;22;19911;-78
2023/07/15 03:16:51;;;;;;;;;;;23.00;43.30;;;;;;6275940;22;19904;-79
2023/07/15 03:19:17;;;;;;;;;;;23.20;43.10;;;;;;6276514;22;19949;-79
2023/07/15 03:21:42;;;;;;;;;;;23.30;42.80;;;;;;6276083;22;20205;-78
2023/07/15 03:24:08;;;;;;;;;;;23.40;42.50;;;;;;6276688;22;20309;-79
2023/07/15 03:26:34;;;;;;;;;;;23.60;42.20;;;;;;6276129;22;19987;-78
2023/07/15 03:28:59;;;;;;;;;;;23.80;41.80;;;;;;6276282;22;19943;-78
2023/07/15 03:31:25;;;;;;;;;;;23.80;41.40;;;;;;6276235;22;19914;-79
2023/07/15 03:33:53;;;;;;;;;;;24.00;41.20;;;;;;6275715;22;19918;-78
2023/07/15 03:36:19;;;;;;;;;;;24.10;40.90;;;;;;6275897;22;19908;-78
2023/07/15 03:38:44;;;;;;;;;;;24.20;40.70;;;;;;6276536;22;19911;-78
2023/07/15 03:41:10;;;;;;;;;;;24.30;40.40;;;;;;6276109;22;20282;-78
2023/07/15 03:43:35;;;;;;;;;;;24.40;40.20;;;;;;6276167;22;19919;-80
2023/07/15 03:46:00;;;;;;;;;;;24.50;40.00;;;;;;6275673;22;20317;-79
2023/07/15 03:48:26;;;;;;;;;;;24.70;39.70;;;;;;6275917;22;20309;-79
2023/07/15 03:50:52;;;;;;;;;;;24.70;39.50;;;;;;6275799;22;20277;-78
2023/07/15 03:53:17;;;;;;;;;;;24.90;39.30;;;;;;6276249;22;19945;-78
2023/07/15 03:55:43;;;;;;;;;;;25.00;39.10;;;;;;6248481;22;20215;-78
2023/07/15 03:58:08;;;;;;;;;;;25.20;38.90;;;;;;6275890;22;19912;-78
2023/07/15 04:00:34;;;;;;;;;;;25.30;38.70;;;;;;6275660;22;19910;-77
2023/07/15 04:03:00;;;;;;;;;;;25.40;38.70;;;;;;6275547;22;19919;-76
2023/07/15 04:05:25;;;;;;;;;;;25.70;38.70;;;;;;6275800;22;19911;-77
2023/07/15 04:07:51;;;;;;;;;;;26.00;38.40;;;;;;6275849;22;19965;-77
2023/07/15 04:10:16;;;;;;;;;;;26.20;38.00;;;;;;6275683;22;19914;-77
2023/07/15 04:12:42;;;;;;;;;;;26.40;37.80;;;;;;6275632;22;19918;-77
2023/07/15 04:15:07;;;;;;;;;;;26.70;37.50;;;;;;6275839;22;19907;-77
2023/07/15 04:17:33;;;;;;;;;;;26.80;37.10;;;;;;6275691;22;19976;-75
2023/07/15 04:19:58;;;;;;;;;;;27.10;36.90;;;;;;6275783;22;20355;-75
2023/07/15 04:22:24;;;;;;;;;;;27.30;36.60;;;;;;6275857;22;19911;-76
2023/07/15 04:24:49;;;;;;;;;;;27.50;36.60;;;;;;6276322;22;19998;-76
2023/07/15 04:27:15;;;;;;;;;;;27.80;36.30;;;;;;6276304;22;19911;-76
2023/07/15 04:29:40;;;;;;;;;;;28.10;35.70;;;;;;6276503;22;19912;-76
2023/07/15 04:32:06;;;;;;;;;;;28.40;35.40;;;;;;6275823;22;19903;-76
2023/07/15 04:34:31;;;;;;;;;;;28.60;34.90;;;;;;6276858;22;20303;-76
2023/07/15 04:36:57;;;;;;;;;;;28.90;34.60;;;;;;6276718;22;19903;-76
2023/07/15 04:39:23;;;;;;;;;;;29.20;34.30;;;;;;6276386;22;19911;-76
2023/07/15 04:41:49;;;;;;;;;;;29.50;33.80;;;;;;6275869;22;19908;-76
2023/07/15 04:44:14;;;;;;;;;;;29.70;33.50;;;;;;6279212;22;20213;-75
2023/07/15 04:46:40;;;;;;;;;;;30.00;33.30;;;;;;6277444;22;20258;-76
2023/07/15 04:49:05;;;;;;;;;;;30.30;33.10;;;;;;6276360;22;19915;-76
2023/07/15 04:51:31;;;;;;;;;;;30.60;32.90;;;;;;6275965;22;19907;-76
2023/07/15 04:53:56;;;;;;;;;;;30.90;32.70;;;;;;6248882;22;19915;-75
2023/07/15 04:56:22;;;;;;;;;;;31.20;32.30;;;;;;6275462;22;20348;-76
2023/07/15 04:58:48;;;;;;;;;;;31.50;32.20;;;;;;6274971;22;19911;-75
2023/07/15 05:01:13;;;;;;;;;;;31.80;32.20;;;;;;6275332;22;19904;-76
2023/07/15 05:03:38;;;;;;;;;;;32.10;32.00;;;;;;6275657;22;19915;-75
2023/07/15 05:06:04;;;;;;;;;;;32.40;31.70;;;;;;6275349;22;19986;-75
2023/07/15 05:08:29;;;;;;;;;;;32.70;31.70;;;;;;6276956;22;19918;-75
2023/07/15 05:10:55;;;;;;;;;;;33.10;31.50;;;;;;6275921;22;19957;-78
2023/07/15 05:13:20;;;;;;;;;;;33.40;31.20;;;;;;6275071;22;19917;-76
2023/07/15 05:15:46;;;;;;;;;;;33.80;31.00;;;;;;6247866;22;19907;-76
2023/07/15 05:18:11;;;;;;;;;;;34.20;30.90;;;;;;6275253;22;19918;-76
2023/07/15 05:20:37;;;;;;;;;;;34.50;30.50;;;;;;6274888;22;19911;-77
2023/07/15 05:23:03;;;;;;;;;;;34.90;30.20;;;;;;6274771;22;19954;-75
2023/07/15 05:25:29;;;;;;;;;;;35.20;30.00;;;;;;6274961;22;19904;-76
2023/07/15 05:27:55;;;;;;;;;;;35.50;29.50;;;;;;6274755;22;19946;-76
2023/07/15 05:30:20;;;;;;;;;;;35.80;28.90;;;;;;6274770;22;20307;-75
2023/07/15 05:32:45;;;;;;;;;;;36.10;29.10;;;;;;6274726;22;19957;-75
2023/07/15 05:35:11;;;;;;;;;;;36.40;28.90;;;;;;6274683;22;20340;-75
2023/07/15 05:37:37;;;;;;;;;;;36.70;28.70;;;;;;6274806;22;19909;-75
2023/07/15 05:40:09;;;;;;;;;;;37.20;28.50;;;;;;6274586;22;19903;-75
2023/07/15 05:42:35;;;;;;;;;;;37.50;28.00;;;;;;6274773;22;19907;-75
2023/07/15 05:45:00;;;;;;;;;;;37.80;27.60;;;;;;6274625;22;20284;-74
2023/07/15 05:47:25;;;;;;;;;;;38.20;26.20;;;;;;6274664;22;19904;-76
2023/07/15 05:49:54;;;;;;;;;;;38.50;25.60;;;;;;6247748;22;20361;-75
2023/07/15 05:52:19;;;;;;;;;;;38.70;24.80;;;;;;6274592;22;19939;-75
2023/07/15 05:54:45;;;;;;;;;;;38.90;24.20;;;;;;6275234;22;20245;-75
2023/07/15 05:57:10;;;;;;;;;;;39.10;23.80;;;;;;6274466;22;20348;-75
2023/07/15 05:59:36;;;;;;;;;;;39.30;23.50;;;;;;6275121;22;20326;-75
2023/07/15 06:02:01;;;;;;;;;;;39.50;23.20;;;;;;6274442;22;19956;-75
2023/07/15 06:04:27;;;;;;;;;;;39.70;22.50;;;;;;6275178;22;19912;-75
2023/07/15 06:06:52;;;;;;;;;;;39.80;22.30;;;;;;6274559;22;19929;-76
2023/07/15 06:09:18;;;;;;;;;;;39.90;22.40;;;;;;6274886;22;20348;-76
2023/07/15 06:11:43;;;;;;;;;;;40.20;22.20;;;;;;6274776;22;20246;-76
2023/07/15 06:14:09;;;;;;;;;;;40.30;21.80;;;;;;6274790;22;19919;-75
2023/07/15 06:16:34;;;;;;;;;;;40.50;21.60;;;;;;6274548;22;19912;-76
2023/07/15 06:18:59;;;;;;;;;;;40.70;21.80;;;;;;6274804;22;19918;-75
2023/07/15 06:21:25;;;;;;;;;;;41.00;21.40;;;;;;6274430;22;19907;-75
2023/07/15 06:23:51;;;;;;;;;;;41.10;21.20;;;;;;6274752;22;19961;-75
2023/07/15 06:26:16;;;;;;;;;;;41.30;20.90;;;;;;6274706;22;19904;-75
2023/07/15 06:28:42;;;;;;;;;;;41.40;20.30;;;;;;6274766;22;19990;-75
2023/07/15 06:31:07;;;;;;;;;;;41.50;20.30;;;;;;6274173;22;19938;-75
2023/07/15 06:33:33;;;;;;;;;;;41.60;20.50;;;;;;6274488;22;19911;-76
2023/07/15 06:35:59;;;;;;;;;;;41.80;20.20;;;;;;6274454;22;19929;-74
2023/07/15 06:38:25;;;;;;;;;;;41.90;19.80;;;;;;6274608;22;19911;-75
2023/07/15 06:40:51;;;;;;;;;;;42.00;19.90;;;;;;6274495;22;19965;-72
2023/07/15 06:43:16;;;;;;;;;;;42.20;19.90;;;;;;6274490;22;19915;-74
2023/07/15 06:45:42;;;;;;;;;;;42.50;19.40;;;;;;6274409;22;19907;-74
2023/07/15 06:48:07;;;;;;;;;;;42.60;19.50;;;;;;6274170;22;19911;-75
2023/07/15 06:50:33;;;;;;;;;;;42.80;19.30;;;;;;6274696;22;19905;-74
2023/07/15 06:52:58;;;;;;;;;;;43.00;19.20;;;;;;6274243;22;19943;-76
2023/07/15 06:55:24;;;;;;;;;;;43.20;19.40;;;;;;6274448;22;19910;-72
2023/07/15 06:57:49;;;;;;;;;;;43.50;19.50;;;;;;6275213;22;19965;-75
2023/07/15 07:00:15;;;;;;;;;;;43.80;19.20;;;;;;6274366;22;19937;-76
2023/07/15 07:02:40;;;;;;;;;;;44.10;18.80;;;;;;6274356;22;20222;-75
2023/07/15 07:05:06;;;;;;;;;;;44.30;18.60;;;;;;6273745;22;20196;-75
2023/07/15 07:07:31;;;;;;;;;;;44.50;18.30;;;;;;6274313;22;20345;-75
2023/07/15 07:09:57;;;;;;;;;;;44.50;17.60;;;;;;6275132;22;19925;-74
2023/07/15 07:12:22;;;;;;;;;;;44.30;17.50;;;;;;6276786;22;19904;-79
2023/07/15 07:14:48;;;;;;;;;;;44.40;17.70;;;;;;6280219;22;19919;-76
2023/07/15 07:17:13;;;;;;;;;;;44.40;17.70;;;;;;6251538;22;20314;-75
2023/07/15 07:19:39;;;;;;;;;;;44.50;17.80;;;;;;6280353;22;19912;-73
2023/07/15 07:22:04;;;;;;;;;;;44.70;17.70;;;;;;6275812;22;19946;-75
2023/07/15 07:24:30;;;;;;;;;;;44.70;17.70;;;;;;6278530;22;20002;-74
2023/07/15 07:26:55;;;;;;;;;;;44.90;17.40;;;;;;6277667;22;19965;-77
2023/07/15 07:29:21;;;;;;;;;;;45.00;16.90;;;;;;6279265;22;19915;-76
2023/07/15 07:31:47;;;;;;;;;;;45.10;17.10;;;;;;6281207;22;19903;-74
2023/07/15 07:34:12;;;;;;;;;;;45.30;17.10;;;;;;6282238;22;19911;-76
2023/07/15 07:36:38;;;;;;;;;;;45.50;17.10;;;;;;6252328;22;19927;-75
2023/07/15 07:39:03;;;;;;;;;;;45.70;16.80;;;;;;6254007;22;19938;-75
2023/07/15 07:41:29;;;;;;;;;;;45.80;16.50;;;;;;6281346;22;19907;-75
2023/07/15 07:43:54;;;;;;;;;;;45.80;16.70;;;;;;6283237;22;19911;-75
2023/07/15 07:46:20;;;;;;;;;;;46.00;16.60;;;;;;6280766;22;19903;-75
2023/07/15 07:48:45;;;;;;;;;;;46.20;16.80;;;;;;6276136;22;19947;-75
2023/07/15 07:51:10;;;;;;;;;;;46.30;16.50;;;;;;6247801;22;20332;-75
2023/07/15 07:53:36;;;;;;;;;;;46.50;16.50;;;;;;6275557;22;20348;-75
2023/07/15 07:56:01;;;;;;;;;;;46.50;16.20;;;;;;6276552;22;20352;-75
2023/07/15 07:58:27;;;;;;;;;;;46.50;16.10;;;;;;6276551;22;19911;-74
2023/07/15 08:00:53;;;;;;;;;;;46.30;15.90;;;;;;6278113;22;19903;-75
2023/07/15 08:03:18;;;;;;;;;;;46.20;16.10;;;;;;6276330;22;19993;-75
2023/07/15 08:05:44;;;;;;;;;;;46.30;16.40;;;;;;6277134;22;19926;-75
2023/07/15 08:08:10;;;;;;;;;;;46.40;16.50;;;;;;6278639;22;19918;-74
2023/07/15 08:10:36;;;;;;;;;;;46.50;16.30;;;;;;6278199;22;19908;-76
2023/07/15 08:13:03;;;;;;;;;;;46.60;16.10;;;;;;6277676;22;19918;-75
2023/07/15 08:15:29;;;;;;;;;;;46.60;16.30;;;;;;6277594;22;19910;-76
2023/07/15 08:17:55;;;;;;;;;;;46.50;16.30;;;;;;6278175;22;19961;-75
2023/07/15 08:20:21;;;;;;;;;;;46.40;16.50;;;;;;6276308;22;20252;-76
2023/07/15 08:22:46;;;;;;;;;;;46.40;16.60;;;;;;6274677;22;19961;-77
2023/07/15 08:25:12;;;;;;;;;;;46.40;16.80;;;;;;6275420;22;19907;-76
2023/07/15 08:27:37;;;;;;;;;;;46.60;16.70;;;;;;6275232;22;19935;-75
2023/07/15 08:30:03;;;;;;;;;;;46.60;16.40;;;;;;6275385;22;19949;-75
2023/07/15 08:32:29;;;;;;;;;;;46.50;16.60;;;;;;6275493;22;20383;-76
2023/07/15 08:34:58;;;;;;;;;;;46.30;16.40;;;;;;6274492;22;19911;-76
2023/07/15 08:37:24;;;;;;;;;;;45.90;16.70;;;;;;6275157;22;19983;-76
2023/07/15 08:39:49;;;;;;;;;;;45.70;17.20;;;;;;6275223;22;20432;-75
2023/07/15 08:42:15;;;;;;;;;;;45.70;17.20;;;;;;6276165;22;19935;-75
2023/07/15 08:44:41;;;;;;;;;;;45.70;17.00;;;;;;6277629;22;19911;-74
2023/07/15 08:47:07;;;;;;;;;;;45.80;17.20;;;;;;6275643;22;19914;-76
2023/07/15 08:49:35;;;;;;;;;;;46.10;17.10;;;;;;6276051;22;20012;-76
2023/07/15 08:52:01;;;;;;;;;;;46.30;16.90;;;;;;6273928;22;19907;-76
2023/07/15 08:54:28;;;;;;;;;;;46.40;16.70;;;;;;6278359;22;20270;-75
2023/07/15 08:56:53;;;;;;;;;;;46.30;16.40;;;;;;6275414;22;20325;-75
2023/07/15 08:59:19;;;;;;;;;;;45.90;16.40;;;;;;6275045;22;19912;-75
2023/07/15 09:01:44;;;;;;;;;;;45.40;16.60;;;;;;6275164;22;19907;-74
2023/07/15 09:04:09;;;;;;;;;;;44.90;16.70;;;;;;6274977;22;19918;-75
2023/07/15 09:06:35;;;;;;;;;;;44.40;17.20;;;;;;6276523;22;19914;-75
2023/07/15 09:09:01;;;;;;;;;;;44.10;17.60;;;;;;6274997;22;19911;-76
2023/07/15 09:11:36;;;;;;;;;;;44.00;17.70;;;;;;6274530;22;19982;-77
2023/07/15 09:14:11;;;;;;;;;;;44.20;17.80;;;;;;6275319;22;19911;-77
2023/07/15 09:16:38;;;;;;;;;;;44.50;17.60;;;;;;6274736;22;19908;-75
2023/07/15 09:19:03;;;;;;;;;;;44.70;17.30;;;;;;6274758;22;19947;-75
2023/07/15 09:21:29;;;;;;;;;;;44.70;17.50;;;;;;6273692;22;19910;-75
2023/07/15 09:23:59;;;;;;;;;;;44.80;17.40;;;;;;6275137;22;19918;-73
2023/07/15 09:26:25;;;;;;;;;;;44.70;17.40;;;;;;6247827;22;20266;-76
2023/07/15 09:28:50;;;;;;;;;;;44.70;17.60;;;;;;6274613;22;19942;-76
2023/07/15 09:31:25;;;;;;;;;;;44.60;17.50;;;;;;6274888;22;20333;-77
2023/07/15 09:33:51;;;;;;;;;;;44.50;17.70;;;;;;6274859;22;20270;-77
2023/07/15 09:36:27;;;;;;;;;;;44.10;17.70;;;;;;6274934;22;19950;-76
2023/07/15 09:38:53;;;;;;;;;;;43.90;18.00;;;;;;6274158;22;19937;-78
2023/07/15 09:41:19;;;;;;;;;;;43.70;18.20;;;;;;6274557;22;19903;-76
2023/07/15 09:43:46;;;;;;;;;;;43.40;18.20;;;;;;6274959;22;20203;-77
2023/07/15 09:46:12;;;;;;;;;;;43.00;18.50;;;;;;6274619;22;19904;-76
2023/07/15 09:48:38;;;;;;;;;;;42.50;19.10;;;;;;6273653;22;19911;-76
2023/07/15 09:51:04;;;;;;;;;;;42.20;19.30;;;;;;6273989;22;19926;-76
2023/07/15 09:53:30;;;;;;;;;;;41.70;19.80;;;;;;6274781;22;20314;-77
2023/07/15 09:55:56;;;;;;;;;;;41.30;20.30;;;;;;6247393;22;19915;-76
2023/07/15 09:58:22;;;;;;;;;;;40.80;20.90;;;;;;6274591;22;20242;-76
2023/07/15 10:00:52;;;;;;;;;;;40.50;21.10;;;;;;6274291;22;19904;-77
2023/07/15 10:03:28;;;;;;;;;;;40.10;21.70;;;;;;6274632;22;19998;-77
2023/07/15 10:05:53;;;;;;;;;;;39.70;22.30;;;;;;6274128;22;19910;-76
2023/07/15 10:08:19;;;;;;;;;;;39.30;22.80;;;;;;6274655;22;19911;-77
2023/07/15 10:10:45;;;;;;;;;;;39.10;23.20;;;;;;6273936;22;19907;-76
2023/07/15 10:13:12;;;;;;;;;;;38.70;23.50;;;;;;6273736;22;19916;-76
2023/07/15 10:15:38;;;;;;;;;;;38.20;24.10;;;;;;6274457;22;19904;-77
2023/07/15 10:18:10;;;;;;;;;;;37.50;24.90;;;;;;6273210;22;19912;-78
2023/07/15 10:20:36;;;;;;;;;;;37.10;25.70;;;;;;6274392;22;19919;-76
2023/07/15 10:23:01;;;;;;;;;;;36.60;26.50;;;;;;6273588;22;19915;-76
2023/07/15 10:25:27;;;;;;;;;;;36.20;27.20;;;;;;6274560;22;19952;-77
2023/07/15 10:28:08;;;;;;;;;;;35.70;28.20;;;;;;6274514;22;19928;-76
2023/07/15 10:30:33;;;;;;;;;;;35.20;30.60;;;;;;6275654;22;19990;-77
2023/07/15 10:33:05;;;;;;;;;;;34.30;33.80;;;;;;6275757;22;20326;-77
2023/07/15 10:35:34;;;;;;;;;;;33.30;38.00;;;;;;6279903;22;19934;-74
2023/07/15 10:38:18;;;;;;;;;;;32.20;42.90;;;;;;6280670;22;19918;-75
2023/07/15 10:40:46;;;;;;;;;;;31.30;46.40;;;;;;6286010;22;19903;-75
2023/07/15 10:43:12;;;;;;;;;;;30.40;49.70;;;;;;6284024;22;19915;-76
2023/07/15 10:45:41;;;;;;;;;;;29.90;51.50;;;;;;6283142;22;20347;-74
2023/07/15 10:48:06;;;;;;;;;;;29.30;52.80;;;;;;6263346;22;19955;-77
2023/07/15 10:50:32;;;;;;;;;;;28.80;55.00;;;;;;6286887;22;19903;-75
2023/07/15 10:53:17;;;;;;;;;;;28.60;56.60;;;;;;6283671;22;19912;-74
2023/07/15 10:55:43;;;;;;;;;;;28.40;56.40;;;;;;6286712;22;20321;-75
2023/07/15 10:58:08;;;;;;;;;;;28.10;58.30;;;;;;6278604;22;19982;-73
2023/07/15 11:00:33;;;;;;;;;;;27.70;59.80;;;;;;6276516;22;20310;-72
2023/07/15 11:02:59;;;;;;;;;;;27.40;61.20;;;;;;6249105;22;20332;-69
2023/07/15 11:05:24;;;;;;;;;;;27.10;62.10;;;;;;6276639;22;19904;-69
2023/07/15 11:07:50;;;;;;;;;;;26.70;63.10;;;;;;6276366;22;20344;-67
2023/07/15 11:10:16;;;;;;;;;;;26.50;64.40;;;;;;6276447;22;19954;-68
2023/07/15 11:12:41;;;;;;;;;;;26.20;65.90;;;;;;6276082;22;20383;-68
2023/07/15 11:15:08;;;;;;;;;;;26.10;66.30;;;;;;6276168;22;19957;-68
2023/07/15 11:17:38;;;;;;;;;;;25.80;67.20;;;;;;6275871;22;20325;-70
2023/07/15 11:20:05;;;;;;;;;;;25.80;67.40;;;;;;6274545;22;20218;-70
2023/07/15 11:22:31;;;;;;;;;;;25.60;68.00;;;;;;6275921;22;19907;-71
2023/07/15 11:24:57;;;;;;;;;;;25.60;68.70;;;;;;6275482;22;19986;-71
2023/07/15 11:27:23;;;;;;;;;;;25.50;68.80;;;;;;6275936;22;20218;-73
2023/07/15 11:29:56;;;;;;;;;;;25.50;69.00;;;;;;6276753;22;20000;-73
2023/07/15 11:32:21;;;;;;;;;;;25.40;69.10;;;;;;6273045;22;19932;-71
2023/07/15 11:34:47;;;;;;;;;;;25.30;69.80;;;;;;6276172;22;20241;-72
2023/07/15 11:37:12;;;;;;;;;;;25.30;70.00;;;;;;6248138;22;19903;-72
2023/07/15 11:39:43;;;;;;;;;;;25.30;70.30;;;;;;6275588;22;19911;-75
2023/07/15 11:42:09;;;;;;;;;;;25.40;70.50;;;;;;6275608;22;19935;-71
2023/07/15 11:44:35;;;;;;;;;;;25.40;70.50;;;;;;6275327;22;19934;-72
2023/07/15 11:47:01;;;;;;;;;;;25.50;70.50;;;;;;6275690;22;19911;-71
2023/07/15 11:49:26;;;;;;;;;;;25.60;70.40;;;;;;6276586;22;19912;-71
2023/07/15 11:51:56;;;;;;;;;;;25.70;70.40;;;;;;6247988;22;20248;-71
2023/07/15 11:54:21;;;;;;;;;;;25.80;71.00;;;;;;6275622;22;19950;-71
2023/07/15 11:56:47;;;;;;;;;;;25.90;70.90;;;;;;6275068;22;19911;-71
2023/07/15 11:59:33;;;;;;;;;;;26.00;71.00;;;;;;6276354;22;20210;-71
2023/07/15 12:02:02;;;;;;;;;;;26.10;71.10;;;;;;6275041;22;19907;-71
2023/07/15 12:04:31;;;;;;;;;;;26.30;70.90;;;;;;6275714;22;19915;-71
2023/07/15 12:06:57;;;;;;;;;;;26.30;70.60;;;;;;6274870;22;19903;-72
2023/07/15 12:09:22;;;;;;;;;;;26.40;70.80;;;;;;6275904;22;20171;-71
2023/07/15 12:11:48;;;;;;;;;;;26.50;70.90;;;;;;6246997;22;19904;-72
2023/07/15 12:14:15;;;;;;;;;;;26.70;71.10;;;;;;6270235;22;19916;-72
2023/07/15 12:16:41;;;;;;;;;;;26.80;71.10;;;;;;6275497;22;19904;-71
2023/07/15 12:19:08;;;;;;;;;;;26.90;71.00;;;;;;6275401;22;19957;-71
2023/07/15 12:21:33;;;;;;;;;;;27.10;71.30;;;;;;6274143;22;20352;-72
2023/07/15 12:23:59;;;;;;;;;;;27.40;71.90;;;;;;6271142;22;19911;-73
2023/07/15 12:26:24;;;;;;;;;;;27.80;71.70;;;;;;6273867;22;19910;-73
2023/07/15 12:28:50;;;;;;;;;;;28.10;71.00;;;;;;6274902;22;19919;-73
2023/07/15 12:31:16;;;;;;;;;;;28.30;70.80;;;;;;6275119;22;19911;-73
2023/07/15 12:33:42;;;;;;;;;;;28.40;70.70;;;;;;6245817;22;19933;-74
2023/07/15 12:36:09;;;;;;;;;;;28.60;71.00;;;;;;6272242;22;19908;-74
2023/07/15 12:38:34;;;;;;;;;;;28.90;71.30;;;;;;6274484;22;19918;-74
2023/07/15 12:41:01;;;;;;;;;;;29.30;71.60;;;;;;6275055;22;19903;-74
2023/07/15 12:43:27;;;;;;;;;;;29.80;71.30;;;;;;6272982;22;20304;-74
2023/07/15 12:45:52;;;;;;;;;;;30.00;70.70;;;;;;6271136;22;19917;-74
2023/07/15 12:48:18;;;;;;;;;;;30.10;70.30;;;;;;6275084;22;19911;-74
2023/07/15 12:50:44;;;;;;;;;;;30.30;69.90;;;;;;6274678;22;19903;-73
2023/07/15 12:53:09;;;;;;;;;;;30.50;70.10;;;;;;6274543;22;19917;-74
2023/07/15 12:55:35;;;;;;;;;;;30.80;70.30;;;;;;6269698;22;19914;-74
2023/07/15 12:58:00;;;;;;;;;;;31.30;70.20;;;;;;6275167;22;19951;-73
2023/07/15 13:00:26;;;;;;;;;;;31.80;68.80;;;;;;6275675;22;19903;-73
2023/07/15 13:02:51;;;;;;;;;;;32.10;68.30;;;;;;6246820;22;19919;-72
2023/07/15 13:05:17;;;;;;;;;;;32.50;67.70;;;;;;6269306;22;19994;-73
2023/07/15 13:07:42;;;;;;;;;;;32.80;67.50;;;;;;6273539;22;19910;-73
2023/07/15 13:10:08;;;;;;;;;;;33.10;67.50;;;;;;6275298;22;19910;-73
2023/07/15 13:12:33;;;;;;;;;;;33.10;65.80;;;;;;6274211;22;19903;-73
2023/07/15 13:14:59;;;;;;;;;;;33.00;65.40;;;;;;6269340;22;19934;-74
2023/07/15 13:17:24;;;;;;;;;;;32.80;64.70;;;;;;6248177;22;19903;-72
2023/07/15 13:19:50;;;;;;;;;;;32.70;64.30;;;;;;6275657;22;19969;-73
2023/07/15 13:22:16;;;;;;;;;;;32.80;65.30;;;;;;6274126;22;19986;-72
2023/07/15 13:24:41;;;;;;;;;;;32.80;64.00;;;;;;6275196;22;19911;-72
2023/07/15 13:27:06;;;;;;;;;;;33.10;63.90;;;;;;6274881;22;20356;-72
2023/07/15 13:29:32;;;;;;;;;;;33.40;63.60;;;;;;6246902;22;19915;-73
2023/07/15 13:31:57;;;;;;;;;;;33.80;64.80;;;;;;6275127;22;19954;-73
2023/07/15 13:34:23;;;;;;;;;;;34.20;64.00;;;;;;6275585;22;19949;-73
2023/07/15 13:36:48;;;;;;;;;;;34.40;62.20;;;;;;6274282;22;19983;-73
2023/07/15 13:39:34;;;;;;;;;;;34.70;62.30;;;;;;6247448;22;19915;-73
2023/07/15 13:41:59;;;;;;;;;;;34.70;59.90;;;;;;6247054;22;19908;-73
2023/07/15 13:44:25;;;;;;;;;;;34.50;58.20;;;;;;6274367;22;20321;-73
2023/07/15 13:46:50;;;;;;;;;;;34.20;57.00;;;;;;6274644;22;20021;-73
2023/07/15 13:49:16;;;;;;;;;;;34.00;56.70;;;;;;6247503;22;19922;-74
2023/07/15 13:51:41;;;;;;;;;;;34.10;58.00;;;;;;6247423;22;19907;-73
2023/07/15 13:54:07;;;;;;;;;;;34.30;57.10;;;;;;6247085;22;19998;-73
2023/07/15 13:56:32;;;;;;;;;;;34.50;57.50;;;;;;6274815;22;19941;-73
2023/07/15 13:59:00;;;;;;;;;;;34.40;55.30;;;;;;6273340;22;20210;-73
2023/07/15 14:01:25;;;;;;;;;;;34.40;55.20;;;;;;6274711;22;19946;-74
2023/07/15 14:03:50;;;;;;;;;;;34.30;54.60;;;;;;6246996;22;19915;-74
2023/07/15 14:06:16;;;;;;;;;;;34.30;55.20;;;;;;6274657;22;20287;-74
2023/07/15 14:08:41;;;;;;;;;;;34.30;54.70;;;;;;6274312;22;19911;-73
2023/07/15 14:11:07;;;;;;;;;;;34.40;53.70;;;;;;6274816;22;19907;-74